createdAt,value
2022-09-25T00:01:24.514Z,95635.81
2022-09-25T00:03:52.496Z,95669.94
2022-09-25T00:06:23.830Z,95670.44
2022-09-25T00:08:52.329Z,95665.53
2022-09-25T00:11:24.162Z,95656.59
2022-09-25T00:13:52.819Z,95641.78
2022-09-25T00:16:22.576Z,95660.03
2022-09-25T00:19:09.664Z,95663.06
2022-09-25T00:21:38.876Z,95656.06
2022-09-25T00:24:08.600Z,95665.94
2022-09-25T00:26:38.764Z,95668.28
2022-09-25T00:29:08.291Z,95641.94
2022-09-25T00:31:36.429Z,95651.63
2022-09-25T00:34:06.924Z,95662.69
2022-09-25T00:36:35.670Z,95654.91
2022-09-25T00:39:03.993Z,95659.69
2022-09-25T00:41:32.632Z,95655.09
2022-09-25T00:44:02.307Z,95659.34
2022-09-25T00:46:35.015Z,95650.97
2022-09-25T00:49:08.113Z,95637.69
2022-09-25T00:51:43.477Z,95644.47
2022-09-25T00:54:15.940Z,95644.88
2022-09-25T00:56:46.964Z,95652.31
2022-09-25T00:59:19.841Z,95644.88
2022-09-25T01:01:48.582Z,95647.28
2022-09-25T01:04:18.588Z,95648.91
2022-09-25T01:06:46.549Z,95644.94
2022-09-25T01:09:14.376Z,95638.22
2022-09-25T01:11:42.206Z,95632.66
2022-09-25T01:14:11.100Z,95631.66
2022-09-25T01:16:46.810Z,95635.28
2022-09-25T01:19:27.666Z,95618.53
2022-09-25T01:22:02.061Z,95643.56
2022-09-25T01:24:43.955Z,95636.41
2022-09-25T01:27:34.148Z,95641.00
2022-09-25T01:30:10.033Z,95621.16
2022-09-25T01:32:45.839Z,95638.19
2022-09-25T01:35:19.393Z,95641.94
2022-09-25T01:37:53.996Z,95646.03
2022-09-25T01:40:27.716Z,95653.13
2022-09-25T01:43:01.656Z,95651.13
2022-09-25T01:45:38.088Z,95646.84
2022-09-25T01:48:09.796Z,95643.44
2022-09-25T01:50:44.492Z,95654.19
2022-09-25T01:53:17.453Z,95652.28
2022-09-25T01:55:49.339Z,95651.50
2022-09-25T01:58:25.228Z,95663.75
2022-09-25T02:01:00.162Z,95646.88
2022-09-25T02:03:32.885Z,95648.66
2022-09-25T02:06:03.355Z,95641.25
2022-09-25T02:08:36.244Z,95638.06
2022-09-25T02:11:06.727Z,95644.13
2022-09-25T02:13:40.189Z,95635.25
2022-09-25T02:16:13.740Z,95628.59
2022-09-25T02:18:59.429Z,95636.91
2022-09-25T02:21:33.720Z,95639.22
2022-09-25T02:24:10.133Z,95645.22
2022-09-25T02:26:38.671Z,95643.81
2022-09-25T02:29:08.752Z,95610.72
2022-09-25T02:31:41.580Z,95654.41
2022-09-25T02:34:14.570Z,95651.13
2022-09-25T02:36:44.918Z,95658.16
2022-09-25T02:39:17.039Z,95645.91
2022-09-25T02:42:03.506Z,95629.22
2022-09-25T02:44:41.240Z,95657.41
2022-09-25T02:47:24.053Z,95631.13
2022-09-25T02:50:01.026Z,95653.56
2022-09-25T02:52:36.208Z,95657.25
2022-09-25T02:55:10.709Z,95655.03
2022-09-25T02:57:47.179Z,95635.56
2022-09-25T03:00:16.106Z,95647.47
2022-09-25T03:02:52.105Z,95647.06
2022-09-25T03:05:21.589Z,95650.44
2022-09-25T03:08:07.302Z,95650.44
2022-09-25T03:10:37.940Z,95644.25
2022-09-25T03:13:19.747Z,95654.41
2022-09-25T03:15:52.458Z,95635.56
2022-09-25T03:18:21.959Z,95650.13
2022-09-25T03:20:49.835Z,95646.78
2022-09-25T03:23:17.644Z,95642.31
2022-09-25T03:25:49.876Z,95637.97
2022-09-25T03:28:18.266Z,95642.41
2022-09-25T03:30:55.878Z,95639.63
2022-09-25T03:33:25.225Z,95636.69
2022-09-25T03:36:02.062Z,95601.75
2022-09-25T03:38:29.898Z,95631.59
2022-09-25T03:40:57.776Z,95606.31
2022-09-25T03:43:25.652Z,95640.28
2022-09-25T03:45:53.546Z,95562.53
2022-09-25T03:48:21.781Z,95650.06
2022-09-25T03:50:50.988Z,95651.94
2022-09-25T03:53:19.343Z,95617.53
2022-09-25T03:55:48.616Z,95650.38
2022-09-25T03:58:16.915Z,95614.06
2022-09-25T04:00:46.953Z,95651.09
2022-09-25T04:03:15.157Z,95660.63
2022-09-25T04:05:43.244Z,95655.16
2022-09-25T04:08:12.439Z,95651.19
2022-09-25T04:10:40.420Z,95662.44
2022-09-25T04:13:09.216Z,95668.97
2022-09-25T04:15:37.028Z,95659.66
2022-09-25T04:18:06.260Z,95661.44
2022-09-25T04:20:34.289Z,95615.19
2022-09-25T04:23:02.156Z,95658.25
2022-09-25T04:25:31.421Z,95662.69
2022-09-25T04:27:59.481Z,95621.66
2022-09-25T04:30:28.851Z,95670.00
2022-09-25T04:33:14.844Z,95667.50
2022-09-25T04:35:42.833Z,95663.94
2022-09-25T04:38:10.852Z,95650.03
2022-09-25T04:40:40.238Z,95650.19
2022-09-25T04:43:08.508Z,95662.59
2022-09-25T04:45:37.937Z,95661.72
2022-09-25T04:48:06.268Z,95664.16
2022-09-25T04:50:34.767Z,95656.91
2022-09-25T04:53:03.019Z,95654.22
2022-09-25T04:55:30.874Z,95656.13
2022-09-25T04:58:01.588Z,95654.03
2022-09-25T05:00:31.933Z,95634.69
2022-09-25T05:03:00.190Z,95668.28
2022-09-25T05:05:30.526Z,95659.88
2022-09-25T05:08:01.551Z,95668.13
2022-09-25T05:10:31.578Z,95660.91
2022-09-25T05:13:02.233Z,95671.53
2022-09-25T05:15:31.724Z,95668.09
2022-09-25T05:18:03.487Z,95658.31
2022-09-25T05:20:31.409Z,95653.78
2022-09-25T05:22:59.811Z,95634.81
2022-09-25T05:25:28.281Z,95632.81
2022-09-25T05:27:58.477Z,95628.50
2022-09-25T05:30:29.246Z,95654.97
2022-09-25T05:32:59.215Z,95645.78
2022-09-25T05:35:28.353Z,95653.47
2022-09-25T05:37:56.514Z,95653.72
2022-09-25T05:40:25.235Z,95650.03
2022-09-25T05:42:53.966Z,95619.47
2022-09-25T05:45:23.078Z,95653.34
2022-09-25T05:48:01.416Z,95652.47
2022-09-25T05:50:29.563Z,95652.91
2022-09-25T05:52:58.168Z,95668.00
2022-09-25T05:55:26.379Z,95661.66
2022-09-25T05:57:54.268Z,95660.25
2022-09-25T06:00:22.183Z,95649.91
2022-09-25T06:02:54.129Z,95663.97
2022-09-25T06:05:21.994Z,95652.16
2022-09-25T06:07:54.437Z,95614.69
2022-09-25T06:10:22.529Z,95652.69
2022-09-25T06:12:50.456Z,95649.03
2022-09-25T06:15:18.328Z,95642.00
2022-09-25T06:17:46.152Z,95629.47
2022-09-25T06:20:16.497Z,95653.69
2022-09-25T06:22:44.949Z,95648.31
2022-09-25T06:25:15.381Z,95659.78
2022-09-25T06:27:43.240Z,95664.53
2022-09-25T06:30:11.921Z,95657.88
2022-09-25T06:32:39.756Z,95658.50
2022-09-25T06:35:07.903Z,95621.53
2022-09-25T06:37:37.114Z,95659.44
2022-09-25T06:40:05.466Z,95660.50
2022-09-25T06:42:35.253Z,95661.94
2022-09-25T06:45:03.110Z,95651.94
2022-09-25T06:47:30.940Z,95646.38
2022-09-25T06:49:59.934Z,95648.88
2022-09-25T06:52:27.778Z,95649.59
2022-09-25T06:54:57.592Z,95650.06
2022-09-25T06:57:25.434Z,95644.00
2022-09-25T06:59:53.248Z,95653.09
2022-09-25T07:02:50.248Z,95653.09
2022-09-25T07:05:19.437Z,95652.53
2022-09-25T07:07:47.309Z,95663.91
2022-09-25T07:10:17.204Z,95666.91
2022-09-25T07:12:45.098Z,95661.91
2022-09-25T07:15:12.954Z,95668.56
2022-09-25T07:17:43.060Z,95663.19
2022-09-25T07:20:12.672Z,95677.66
2022-09-25T07:22:40.627Z,95655.72
2022-09-25T07:25:10.478Z,95671.91
2022-09-25T07:27:39.901Z,95681.81
2022-09-25T07:30:10.595Z,95688.66
2022-09-25T07:32:38.423Z,95680.81
2022-09-25T07:35:06.785Z,95684.22
2022-09-25T07:37:34.610Z,95669.53
2022-09-25T07:40:02.848Z,95659.59
2022-09-25T07:42:31.634Z,95661.75
2022-09-25T07:45:00.822Z,95649.59
2022-09-25T07:47:28.708Z,95651.78
2022-09-25T07:49:56.575Z,95648.66
2022-09-25T07:52:24.448Z,95648.47
2022-09-25T07:54:52.306Z,95611.25
2022-09-25T07:57:20.613Z,95630.50
2022-09-25T07:59:48.504Z,95621.75
2022-09-25T08:02:17.863Z,95619.63
2022-09-25T08:04:45.889Z,95626.09
2022-09-25T08:07:13.719Z,95626.28
2022-09-25T08:09:41.841Z,95621.66
2022-09-25T08:12:12.924Z,95631.44
2022-09-25T08:14:41.823Z,95631.50
2022-09-25T08:17:09.640Z,95617.75
2022-09-25T08:19:38.868Z,95582.13
2022-09-25T08:22:06.699Z,95581.06
2022-09-25T08:24:34.506Z,95607.53
2022-09-25T08:27:02.361Z,95614.66
2022-09-25T08:29:30.932Z,95603.31
2022-09-25T08:31:58.818Z,95601.28
2022-09-25T08:34:42.888Z,95587.63
2022-09-25T08:37:12.406Z,95556.66
2022-09-25T08:39:40.228Z,95584.88
2022-09-25T08:42:11.796Z,95572.31
2022-09-25T08:44:56.936Z,95577.44
2022-09-25T08:47:48.247Z,95542.50
2022-09-25T08:50:20.431Z,95580.94
2022-09-25T08:52:53.768Z,95572.25
2022-09-25T08:55:46.905Z,95567.50
2022-09-25T08:58:22.074Z,95589.31
2022-09-25T09:00:50.491Z,95581.22
2022-09-25T09:03:18.893Z,95579.47
2022-09-25T09:05:51.697Z,95570.31
2022-09-25T09:08:26.067Z,95577.84
2022-09-25T09:10:58.863Z,95572.03
2022-09-25T09:13:29.949Z,95558.59
2022-09-25T09:16:04.133Z,95558.91
2022-09-25T09:18:33.547Z,95559.34
2022-09-25T09:21:10.372Z,95542.44
2022-09-25T09:23:50.847Z,95543.44
2022-09-25T09:26:27.114Z,95531.19
2022-09-25T09:29:21.533Z,95532.94
2022-09-25T09:31:59.192Z,95539.59
2022-09-25T09:37:46.938Z,95511.06
2022-09-25T09:40:50.694Z,95531.13
2022-09-25T09:43:31.638Z,95503.13
2022-09-25T09:46:06.500Z,95468.09
2022-09-25T09:48:41.019Z,95522.97
2022-09-25T09:51:13.764Z,95520.88
2022-09-25T09:53:47.768Z,95532.13
2022-09-25T09:56:21.118Z,95502.06
2022-09-25T09:58:54.331Z,95513.56
2022-09-25T10:01:42.054Z,95518.28
2022-09-25T10:04:12.580Z,95508.69
2022-09-25T10:06:45.015Z,95508.81
2022-09-25T10:09:16.591Z,95487.03
2022-09-25T10:11:47.993Z,95501.28
2022-09-25T10:14:21.079Z,95490.88
2022-09-25T10:16:51.585Z,95486.41
2022-09-25T10:19:22.396Z,95482.88
2022-09-25T10:21:54.830Z,95454.41
2022-09-25T10:24:51.861Z,95494.72
2022-09-25T10:27:33.359Z,95487.31
2022-09-25T10:30:20.395Z,95477.63
2022-09-25T10:32:58.223Z,95477.34
2022-09-25T10:35:29.792Z,95470.66
2022-09-25T10:37:59.421Z,95470.59
2022-09-25T10:40:31.712Z,95472.41
2022-09-25T10:43:17.199Z,95468.56
2022-09-25T10:45:45.941Z,95460.66
2022-09-25T10:48:45.736Z,95460.09
2022-09-25T10:51:17.306Z,95420.75
2022-09-25T10:53:46.573Z,95451.41
2022-09-25T10:56:18.730Z,95450.47
2022-09-25T10:58:52.728Z,95459.44
2022-09-25T11:01:20.953Z,95449.94
2022-09-25T11:03:53.498Z,95450.53
2022-09-25T11:06:25.836Z,95413.31
2022-09-25T11:09:05.755Z,95435.97
2022-09-25T11:11:33.608Z,95435.84
2022-09-25T11:14:05.809Z,95415.13
2022-09-25T11:16:48.039Z,95426.19
2022-09-25T11:19:21.134Z,95438.09
2022-09-25T11:22:00.109Z,95434.88
2022-09-25T11:24:37.501Z,95440.28
2022-09-25T11:27:12.984Z,95437.31
2022-09-25T11:29:49.886Z,95425.22
2022-09-25T11:32:25.381Z,95426.00
2022-09-25T11:35:17.103Z,95423.63
2022-09-25T11:37:53.696Z,95385.72
2022-09-25T11:40:51.471Z,95413.53
2022-09-25T11:43:31.454Z,95399.22
2022-09-25T11:46:08.293Z,95297.63
2022-09-25T11:48:44.113Z,95406.75
2022-09-25T11:51:24.945Z,95404.38
2022-09-25T11:54:18.243Z,95393.69
2022-09-25T11:56:57.667Z,95385.78
2022-09-25T11:59:39.215Z,95381.50
2022-09-25T12:02:21.438Z,95374.59
2022-09-25T12:05:15.705Z,95379.47
2022-09-25T12:07:58.103Z,95380.03
2022-09-25T12:10:42.974Z,95372.16
2022-09-25T12:13:20.760Z,95365.72
2022-09-25T12:15:59.237Z,95366.84
2022-09-25T12:18:53.389Z,95363.75
2022-09-25T12:21:33.965Z,95369.63
2022-09-25T12:24:10.283Z,95346.38
2022-09-25T12:26:52.640Z,95355.56
2022-09-25T12:29:33.448Z,95341.06
2022-09-25T12:32:08.908Z,95328.81
2022-09-25T12:34:55.753Z,95343.19
2022-09-25T12:37:38.638Z,95331.75
2022-09-25T12:40:16.321Z,95333.34
2022-09-25T12:42:47.968Z,95339.31
2022-09-25T12:45:21.286Z,95333.09
2022-09-25T12:48:02.559Z,95305.50
2022-09-25T12:50:38.424Z,95321.31
2022-09-25T12:53:19.617Z,95184.41
2022-09-25T12:55:53.984Z,95315.19
2022-09-25T12:58:28.745Z,95315.22
2022-09-25T13:01:03.096Z,95299.84
2022-09-25T13:03:41.077Z,95308.25
2022-09-25T13:06:15.304Z,95303.41
2022-09-25T13:08:51.712Z,95291.34
2022-09-25T13:11:39.137Z,95282.63
2022-09-25T13:14:13.155Z,95276.75
2022-09-25T13:16:41.067Z,95278.94
2022-09-25T13:19:23.690Z,95276.28
2022-09-25T13:22:00.159Z,95266.91
2022-09-25T13:24:28.213Z,95266.53
2022-09-25T13:27:06.535Z,95266.38
2022-09-25T13:29:38.991Z,95260.13
2022-09-25T13:32:14.077Z,95242.59
2022-09-25T13:34:43.444Z,95213.84
2022-09-25T13:37:14.391Z,95174.25
2022-09-25T13:40:04.066Z,95252.94
2022-09-25T13:42:37.472Z,95244.63
2022-09-25T13:45:34.349Z,95225.75
2022-09-25T13:48:07.919Z,95252.31
2022-09-25T13:50:44.339Z,95230.84
2022-09-25T13:53:26.094Z,95238.53
2022-09-25T13:56:27.157Z,95210.78
2022-09-25T13:59:23.331Z,95235.91
2022-09-25T14:02:38.173Z,95240.19
2022-09-25T14:05:07.598Z,95228.72
2022-09-25T14:07:36.090Z,95229.44
2022-09-25T14:10:10.936Z,95223.88
2022-09-25T14:12:44.524Z,95227.25
2022-09-25T14:15:23.066Z,95231.97
2022-09-25T14:17:53.599Z,95234.06
2022-09-25T14:20:32.138Z,95220.63
2022-09-25T14:23:02.691Z,95222.34
2022-09-25T14:25:35.093Z,95162.66
2022-09-25T14:28:04.664Z,95209.53
2022-09-25T14:30:33.207Z,95221.00
2022-09-25T14:33:15.893Z,95219.84
2022-09-25T14:35:55.012Z,95221.22
2022-09-25T14:38:52.040Z,95204.28
2022-09-25T14:41:46.630Z,95156.66
2022-09-25T14:44:31.249Z,95206.78
2022-09-25T14:46:59.752Z,95220.72
2022-09-25T14:49:31.148Z,95203.34
2022-09-25T14:52:02.604Z,95210.94
2022-09-25T14:54:38.073Z,95207.94
2022-09-25T14:57:10.972Z,95213.78
2022-09-25T14:59:42.395Z,95180.16
2022-09-25T15:02:19.737Z,95209.09
2022-09-25T15:04:47.687Z,95215.09
2022-09-25T15:07:17.871Z,95214.03
2022-09-25T15:09:48.384Z,95220.19
2022-09-25T15:12:21.206Z,95189.19
2022-09-25T15:14:59.709Z,95180.75
2022-09-25T15:17:28.733Z,95221.66
2022-09-25T15:19:59.115Z,95227.28
2022-09-25T15:22:32.851Z,95224.22
2022-09-25T15:25:03.537Z,95215.81
2022-09-25T15:27:33.712Z,95240.19
2022-09-25T15:30:02.990Z,95230.81
2022-09-25T15:32:39.426Z,95224.88
2022-09-25T15:35:15.945Z,95221.41
2022-09-25T15:37:44.316Z,95217.88
2022-09-25T15:40:25.794Z,95223.84
2022-09-25T15:42:55.745Z,95217.00
2022-09-25T15:45:40.836Z,95227.50
2022-09-25T15:48:21.980Z,95229.19
2022-09-25T15:50:50.085Z,95225.34
2022-09-25T15:53:28.705Z,95229.75
2022-09-25T15:56:06.981Z,95219.69
2022-09-25T15:58:45.905Z,95225.22
2022-09-25T16:01:34.537Z,95200.34
2022-09-25T16:04:20.710Z,95216.75
2022-09-25T16:06:49.996Z,95207.03
2022-09-25T16:09:24.675Z,95212.53
2022-09-25T16:11:52.546Z,95212.97
2022-09-25T16:14:29.233Z,95209.94
2022-09-25T16:17:00.050Z,95218.66
2022-09-25T16:19:34.172Z,95197.44
2022-09-25T16:22:16.741Z,95182.66
2022-09-25T16:24:51.958Z,95218.28
2022-09-25T16:27:33.960Z,95212.84
2022-09-25T16:30:04.590Z,95199.97
2022-09-25T16:32:33.193Z,95212.50
2022-09-25T16:35:03.497Z,95160.19
2022-09-25T16:37:35.181Z,95222.75
2022-09-25T16:40:20.119Z,95219.63
2022-09-25T16:42:48.547Z,95233.78
2022-09-25T16:45:20.587Z,95181.91
2022-09-25T16:47:49.620Z,95229.59
2022-09-25T16:50:19.026Z,95234.34
2022-09-25T16:52:47.745Z,95230.03
2022-09-25T16:55:19.475Z,95241.81
2022-09-25T16:57:47.327Z,95244.16
2022-09-25T17:00:18.577Z,95247.28
2022-09-25T17:02:47.557Z,95246.91
2022-09-25T17:05:19.528Z,95253.56
2022-09-25T17:07:49.026Z,95228.53
2022-09-25T17:10:20.545Z,95247.69
2022-09-25T17:12:53.660Z,95255.16
2022-09-25T17:15:27.577Z,95254.75
2022-09-25T17:17:55.475Z,95234.00
2022-09-25T17:20:24.436Z,95244.94
2022-09-25T17:22:52.884Z,95254.31
2022-09-25T17:25:30.904Z,95249.56
2022-09-25T17:27:59.017Z,95111.06
2022-09-25T17:30:28.345Z,95193.28
2022-09-25T17:32:56.260Z,95243.00
2022-09-25T17:35:41.414Z,95222.25
2022-09-25T17:38:09.967Z,95249.66
2022-09-25T17:40:37.896Z,95244.16
2022-09-25T17:43:05.744Z,95242.59
2022-09-25T17:45:39.221Z,95228.53
2022-09-25T17:48:07.120Z,95252.78
2022-09-25T17:50:35.688Z,95257.47
2022-09-25T17:53:05.067Z,95241.03
2022-09-25T17:55:34.149Z,95268.38
2022-09-25T17:58:01.976Z,95240.19
2022-09-25T18:00:29.812Z,95246.44
2022-09-25T18:02:59.095Z,95275.34
2022-09-25T18:05:29.570Z,95264.72
2022-09-25T18:07:57.413Z,95226.22
2022-09-25T18:10:28.951Z,95299.28
2022-09-25T18:12:57.034Z,95302.28
2022-09-25T18:15:24.902Z,95296.72
2022-09-25T18:17:52.939Z,95304.47
2022-09-25T18:20:40.019Z,95299.75
2022-09-25T18:23:07.845Z,95305.16
2022-09-25T18:25:40.081Z,95224.72
2022-09-25T18:28:08.154Z,95309.53
2022-09-25T18:30:38.117Z,95283.50
2022-09-25T18:33:06.290Z,95295.94
2022-09-25T18:35:35.604Z,95312.75
2022-09-25T18:38:03.471Z,95310.28
2022-09-25T18:40:31.350Z,95303.59
2022-09-25T18:43:01.458Z,95289.72
2022-09-25T18:45:29.618Z,95307.69
2022-09-25T18:47:57.963Z,95229.91
2022-09-25T18:50:28.796Z,95252.22
2022-09-25T18:52:58.028Z,95293.69
2022-09-25T18:55:26.326Z,95281.44
2022-09-25T18:57:54.183Z,95298.06
2022-09-25T19:00:22.177Z,95319.09
2022-09-25T19:02:50.117Z,95319.09
2022-09-25T19:05:18.169Z,95288.78
2022-09-25T19:07:46.000Z,95314.59
2022-09-25T19:10:15.274Z,95292.75
2022-09-25T19:12:44.891Z,95311.50
2022-09-25T19:15:13.117Z,95322.28
2022-09-25T19:17:41.195Z,95321.34
2022-09-25T19:20:10.090Z,95297.88
2022-09-25T19:22:38.142Z,95308.69
2022-09-25T19:25:06.815Z,95306.34
2022-09-25T19:27:36.117Z,95313.59
2022-09-25T19:30:04.412Z,95314.31
2022-09-25T19:32:32.237Z,95308.72
2022-09-25T19:35:00.593Z,95313.56
2022-09-25T19:37:32.735Z,95318.47
2022-09-25T19:40:18.709Z,95315.63
2022-09-25T19:42:48.902Z,95304.91
2022-09-25T19:45:16.897Z,95122.59
2022-09-25T19:47:44.725Z,95311.03
2022-09-25T19:50:12.889Z,95313.22
2022-09-25T19:52:40.753Z,95304.41
2022-09-25T19:55:09.203Z,95309.56
2022-09-25T19:57:37.045Z,95312.41
2022-09-25T20:00:07.689Z,95319.41
2022-09-25T20:02:35.861Z,95321.03
2022-09-25T20:05:04.006Z,95253.09
2022-09-25T20:07:31.880Z,95283.31
2022-09-25T20:09:59.684Z,95314.84
2022-09-25T20:12:27.520Z,95298.25
2022-09-25T20:14:55.381Z,95318.56
2022-09-25T20:17:24.614Z,95313.97
2022-09-25T20:19:52.466Z,95296.69
2022-09-25T20:22:20.312Z,95319.13
2022-09-25T20:24:48.228Z,95288.97
2022-09-25T20:27:19.748Z,95305.41
2022-09-25T20:29:50.272Z,95300.09
2022-09-25T20:32:18.130Z,95305.66
2022-09-25T20:34:47.454Z,95331.53
2022-09-25T20:37:15.288Z,95306.50
2022-09-25T20:39:43.976Z,95317.94
2022-09-25T20:42:11.841Z,95326.97
2022-09-25T20:44:39.686Z,95333.72
2022-09-25T20:47:07.508Z,95329.56
2022-09-25T20:49:35.396Z,95308.50
2022-09-25T20:52:05.041Z,95315.03
2022-09-25T20:54:33.344Z,95323.00
2022-09-25T20:57:01.155Z,95318.09
2022-09-25T20:59:28.981Z,95295.66
2022-09-25T21:01:56.882Z,95300.19
2022-09-25T21:04:24.741Z,95305.00
2022-09-25T21:06:52.573Z,95324.94
2022-09-25T21:09:23.641Z,95329.75
2022-09-25T21:11:51.574Z,95313.13
2022-09-25T21:14:22.151Z,95313.03
2022-09-25T21:16:50.983Z,95271.34
2022-09-25T21:19:20.922Z,95275.63
2022-09-25T21:21:49.525Z,95303.59
2022-09-25T21:24:19.002Z,95295.72
2022-09-25T21:26:48.708Z,95290.91
2022-09-25T21:29:17.383Z,95276.22
2022-09-25T21:31:49.787Z,95288.53
2022-09-25T21:34:19.368Z,95283.59
2022-09-25T21:36:47.736Z,95267.91
2022-09-25T21:39:16.089Z,95275.25
2022-09-25T21:41:44.138Z,95294.84
2022-09-25T21:44:15.516Z,95281.06
2022-09-25T21:46:43.952Z,95233.00
2022-09-25T21:49:16.423Z,95258.88
2022-09-25T21:51:45.336Z,95220.25
2022-09-25T21:54:13.829Z,95264.88
2022-09-25T21:56:41.924Z,95272.69
2022-09-25T21:59:09.955Z,95267.69
2022-09-25T22:01:40.138Z,95254.22
2022-09-25T22:04:09.539Z,95277.84
2022-09-25T22:06:39.842Z,95272.25
2022-09-25T22:09:09.597Z,95255.44
2022-09-25T22:11:38.325Z,95262.22
2022-09-25T22:14:07.517Z,95257.50
2022-09-25T22:16:39.990Z,95275.44
2022-09-25T22:19:09.856Z,95218.72
2022-09-25T22:21:39.059Z,95278.56
2022-09-25T22:24:07.808Z,95276.31
2022-09-25T22:26:37.288Z,95235.03
2022-09-25T22:29:05.908Z,95274.41
2022-09-25T22:31:35.231Z,95250.69
2022-09-25T22:34:07.030Z,95284.34
2022-09-25T22:36:36.885Z,95285.13
2022-09-25T22:39:05.678Z,95268.34
2022-09-25T22:41:33.964Z,95279.31
2022-09-25T22:44:03.313Z,95239.03
2022-09-25T22:46:31.485Z,95308.84
2022-09-25T22:48:59.421Z,95252.56
2022-09-25T22:51:28.943Z,95291.94
2022-09-25T22:53:56.772Z,95292.63
2022-09-25T22:56:27.107Z,95263.72
2022-09-25T22:58:57.369Z,95293.06
2022-09-25T23:01:28.612Z,95273.50
2022-09-25T23:03:57.775Z,95282.72
2022-09-25T23:06:26.749Z,95294.09
2022-09-25T23:08:57.497Z,95275.28
2022-09-25T23:11:26.429Z,95275.41
2022-09-25T23:13:58.665Z,95198.06
2022-09-25T23:16:27.419Z,95285.41
2022-09-25T23:18:57.073Z,95284.31
2022-09-25T23:21:25.183Z,95283.41
2022-09-25T23:23:57.765Z,95245.09
2022-09-25T23:26:26.232Z,95214.63
2022-09-25T23:28:54.347Z,95233.53
2022-09-25T23:31:22.875Z,95290.38
2022-09-25T23:33:50.736Z,95285.66
2022-09-25T23:36:20.610Z,95264.00
2022-09-25T23:38:49.256Z,95260.78
2022-09-25T23:41:20.004Z,95233.97
2022-09-25T23:43:49.361Z,95278.44
2022-09-25T23:46:18.601Z,95239.81
2022-09-25T23:48:47.073Z,95234.09
2022-09-25T23:51:16.029Z,95274.81
2022-09-25T23:53:44.780Z,95276.84
2022-09-25T23:56:14.421Z,95273.03
2022-09-25T23:58:44.420Z,95241.50
